Clarkstown, New York
Current Conditions -  °F | °C
As of 3:56 PM on Saturday 22 Nov 2014 (Local Time) from KHPN Reporting Station
Broken Clouds Broken Clouds  
Wind Chill: 34°   Ceiling: 6500
Heat Index: 40°   Visibility: 10mi
Dew Point: 11°   Wind: 9mph
Humidity: 31%   Direction: 230°SW
Pressure: 30.23"   Gusts: NA
Location:  41.156°N, 73.9936°W
Report Text: KHPN 222056Z 23008KT 10SM BKN065 BKN080 04/M12 A3023 RMK AO2 SLP247 T00441117 58019
Loading
Personal Weather Stations






























Interactive Weather Map New forecast layout! Learn more

10-Day Weather Forecast

Advertisements
Track Severe Weather on mobile